createdAt,value
2023-04-22T00:03:33.217Z,65.66
2023-04-22T00:07:43.255Z,65.67
2023-04-22T00:11:51.619Z,65.81
2023-04-22T00:16:00.000Z,65.93
2023-04-22T00:20:11.382Z,65.94
2023-04-22T00:24:19.515Z,66.17
2023-04-22T00:28:27.416Z,66.41
2023-04-22T00:32:35.045Z,66.88
2023-04-22T00:36:43.588Z,67.41
2023-04-22T00:40:52.748Z,67.43
2023-04-22T00:45:00.068Z,67.59
2023-04-22T00:49:08.481Z,67.83
2023-04-22T00:53:17.004Z,67.88
2023-04-22T00:57:25.607Z,68.16
2023-04-22T01:01:33.847Z,68.20
2023-04-22T01:05:41.837Z,68.29
2023-04-22T01:09:49.556Z,68.58
2023-04-22T01:13:59.291Z,68.40
2023-04-22T01:18:07.981Z,69.07
2023-04-22T01:22:17.931Z,69.46
2023-04-22T01:26:25.627Z,69.69
2023-04-22T01:30:35.019Z,70.03
2023-04-22T01:34:49.827Z,70.42
2023-04-22T01:38:57.561Z,70.17
2023-04-22T01:43:05.861Z,70.06
2023-04-22T01:47:14.461Z,70.01
2023-04-22T01:51:23.718Z,70.46
2023-04-22T01:55:31.706Z,70.66
2023-04-22T01:59:41.157Z,71.52
2023-04-22T02:03:49.879Z,71.59
2023-04-22T02:07:58.396Z,71.80
2023-04-22T02:12:06.617Z,71.49
2023-04-22T02:16:14.401Z,71.56
2023-04-22T02:20:22.368Z,71.55
2023-04-22T02:24:30.787Z,71.92
2023-04-22T02:28:38.988Z,71.73
2023-04-22T02:32:46.746Z,71.90
2023-04-22T02:36:56.473Z,71.95
2023-04-22T02:41:04.370Z,71.84
2023-04-22T02:45:13.823Z,72.00
2023-04-22T02:49:21.520Z,72.52
2023-04-22T02:53:29.415Z,73.23
2023-04-22T02:57:38.959Z,73.50
2023-04-22T03:01:46.415Z,74.40
2023-04-22T03:05:54.309Z,74.61
2023-04-22T03:10:04.926Z,74.11
2023-04-22T03:14:14.004Z,73.83
2023-04-22T03:18:21.923Z,73.76
2023-04-22T03:22:30.353Z,73.60
2023-04-22T03:26:38.331Z,73.27
2023-04-22T03:30:46.601Z,73.53
2023-04-22T03:34:54.304Z,73.02
2023-04-22T03:39:02.198Z,73.48
2023-04-22T03:43:09.520Z,73.75
2023-04-22T03:47:17.110Z,73.50
2023-04-22T03:51:25.758Z,74.08
2023-04-22T03:55:33.336Z,74.03
2023-04-22T03:59:42.102Z,73.97
2023-04-22T04:03:50.191Z,74.20
2023-04-22T04:07:58.346Z,74.09
2023-04-22T04:12:07.067Z,74.37
2023-04-22T04:16:14.913Z,74.60
2023-04-22T04:20:23.075Z,74.46
2023-04-22T04:24:31.211Z,74.64
2023-04-22T04:28:41.858Z,74.69
2023-04-22T04:32:51.512Z,75.03
2023-04-22T04:36:59.097Z,75.40
2023-04-22T04:41:08.824Z,75.34
2023-04-22T04:45:17.472Z,76.15
2023-04-22T04:49:25.070Z,76.26
2023-04-22T04:53:35.411Z,76.39
2023-04-22T04:57:43.973Z,76.33
2023-04-22T05:01:52.173Z,76.57
2023-04-22T05:06:00.007Z,76.88
2023-04-22T05:10:12.436Z,76.76
2023-04-22T05:14:20.487Z,77.35
2023-04-22T05:18:28.578Z,77.20
2023-04-22T05:22:36.177Z,77.45
2023-04-22T05:26:44.800Z,76.77
2023-04-22T05:30:52.441Z,76.50
2023-04-22T05:35:00.532Z,76.40
2023-04-22T05:39:10.319Z,76.12
2023-04-22T05:43:18.316Z,75.73
2023-04-22T05:47:26.780Z,75.38
2023-04-22T05:51:34.427Z,74.88
2023-04-22T05:55:42.481Z,74.12
2023-04-22T05:59:50.213Z,73.51
2023-04-22T06:03:59.041Z,73.31
2023-04-22T06:08:07.087Z,72.52
2023-04-22T06:12:15.623Z,71.70
2023-04-22T06:16:23.658Z,72.08
2023-04-22T06:20:32.864Z,70.66
2023-04-22T06:24:40.507Z,70.45
2023-04-22T06:28:48.312Z,69.71
2023-04-22T06:32:57.944Z,68.68
2023-04-22T06:37:07.363Z,66.96
2023-04-22T06:41:15.480Z,65.15
2023-04-22T06:45:23.576Z,64.51
2023-04-22T06:49:31.161Z,64.43
2023-04-22T06:53:40.836Z,63.96
2023-04-22T06:57:51.616Z,62.90
2023-04-22T07:01:59.370Z,62.48
2023-04-22T07:06:08.118Z,62.09
2023-04-22T07:10:16.332Z,62.29
2023-04-22T07:14:26.226Z,61.71
2023-04-22T07:18:37.067Z,61.15
2023-04-22T07:22:45.467Z,60.68
2023-04-22T07:26:54.263Z,59.77
2023-04-22T07:31:03.218Z,59.40
2023-04-22T07:35:12.893Z,59.61
2023-04-22T07:39:20.772Z,59.28
2023-04-22T07:43:28.476Z,58.95
2023-04-22T07:47:36.395Z,58.54
2023-04-22T07:51:45.523Z,58.21
2023-04-22T07:55:54.456Z,57.29
2023-04-22T08:00:03.956Z,56.65
2023-04-22T08:04:16.171Z,56.26
2023-04-22T08:08:23.978Z,55.94
2023-04-22T08:12:31.690Z,57.17
2023-04-22T08:16:39.214Z,57.32
2023-04-22T08:20:47.009Z,57.24
2023-04-22T08:24:54.866Z,56.61
2023-04-22T08:29:03.876Z,56.58
2023-04-22T08:33:11.474Z,55.60
2023-04-22T08:37:19.804Z,54.95
2023-04-22T08:41:28.316Z,55.38
2023-04-22T08:45:37.917Z,54.32
2023-04-22T08:49:45.713Z,52.62
2023-04-22T08:53:53.812Z,51.46
2023-04-22T08:58:04.538Z,51.94
2023-04-22T09:02:19.330Z,51.26
2023-04-22T09:06:28.314Z,52.09
2023-04-22T09:10:39.517Z,51.62
2023-04-22T09:14:48.057Z,49.28
2023-04-22T09:18:56.025Z,49.55
2023-04-22T09:23:07.661Z,49.49
2023-04-22T09:27:15.171Z,49.03
2023-04-22T09:31:24.474Z,46.36
2023-04-22T09:35:33.206Z,45.26
2023-04-22T09:39:45.474Z,45.36
2023-04-22T09:43:53.813Z,45.28
2023-04-22T09:48:04.455Z,44.53
2023-04-22T09:52:12.031Z,45.06
2023-04-22T09:56:20.491Z,44.09
2023-04-22T10:00:32.360Z,42.95
2023-04-22T10:04:39.959Z,41.54
2023-04-22T10:08:48.129Z,41.17
2023-04-22T10:12:56.716Z,41.14
2023-04-22T10:17:05.492Z,39.08
2023-04-22T10:21:13.654Z,39.11
2023-04-22T10:25:27.394Z,37.63
2023-04-22T10:29:42.241Z,38.68
2023-04-22T10:33:49.900Z,38.50
2023-04-22T10:37:57.666Z,37.66
2023-04-22T10:42:16.623Z,37.44
2023-04-22T10:47:00.522Z,37.04
2023-04-22T10:51:08.191Z,35.98
2023-04-22T10:55:16.349Z,35.97
2023-04-22T10:59:23.994Z,36.61
2023-04-22T11:03:32.987Z,36.38
2023-04-22T11:07:41.087Z,36.47
2023-04-22T11:11:50.082Z,36.65
2023-04-22T11:15:58.561Z,35.84
2023-04-22T11:20:13.208Z,35.50
2023-04-22T11:24:23.789Z,34.89
2023-04-22T11:28:33.498Z,34.40
2023-04-22T11:32:43.500Z,34.78
2023-04-22T11:36:51.214Z,35.07
2023-04-22T11:41:00.011Z,34.76
2023-04-22T11:45:09.951Z,35.03
2023-04-22T11:49:19.822Z,34.95
2023-04-22T11:53:29.054Z,34.03
2023-04-22T11:57:41.168Z,33.69
2023-04-22T12:01:54.166Z,33.84
2023-04-22T12:06:04.647Z,33.80
2023-04-22T12:10:14.504Z,33.50
2023-04-22T12:14:22.378Z,33.39
2023-04-22T12:18:33.542Z,33.55
2023-04-22T12:22:44.633Z,33.65
2023-04-22T12:26:52.322Z,33.93
2023-04-22T12:31:01.922Z,34.71
2023-04-22T12:35:11.051Z,34.17
2023-04-22T12:39:20.297Z,33.63
2023-04-22T12:43:32.617Z,34.13
2023-04-22T12:47:40.666Z,34.58
2023-04-22T12:51:49.614Z,34.49
2023-04-22T12:55:58.349Z,33.86
2023-04-22T13:00:14.443Z,33.73
2023-04-22T13:04:23.589Z,33.40
2023-04-22T13:08:31.201Z,32.62
2023-04-22T13:12:38.681Z,32.20
2023-04-22T13:16:46.774Z,32.03
2023-04-22T13:20:55.220Z,32.29
2023-04-22T13:25:04.401Z,31.16
2023-04-22T13:29:14.261Z,30.65
2023-04-22T13:33:22.846Z,30.66
2023-04-22T13:37:30.795Z,31.57
2023-04-22T13:41:38.309Z,31.79
2023-04-22T13:45:48.468Z,32.11
2023-04-22T13:49:56.380Z,32.17
2023-04-22T13:54:07.043Z,30.44
2023-04-22T13:58:14.725Z,31.33
2023-04-22T14:02:23.482Z,31.29
2023-04-22T14:06:31.380Z,31.38
2023-04-22T14:10:46.264Z,31.54
2023-04-22T14:14:53.901Z,32.25
2023-04-22T14:19:02.852Z,31.37
2023-04-22T14:23:11.767Z,31.39
2023-04-22T14:27:19.602Z,31.59
2023-04-22T14:31:27.741Z,31.98
2023-04-22T14:35:35.756Z,32.08
2023-04-22T14:39:44.075Z,32.05
2023-04-22T14:43:51.697Z,31.94
2023-04-22T14:47:59.709Z,33.15
2023-04-22T14:52:07.790Z,32.22
2023-04-22T14:56:15.679Z,32.15
2023-04-22T15:00:24.477Z,32.39
2023-04-22T15:04:32.983Z,32.95
2023-04-22T15:08:41.971Z,33.74
2023-04-22T15:12:49.797Z,33.61
2023-04-22T15:16:57.461Z,33.13
2023-04-22T15:21:09.024Z,33.27
2023-04-22T15:25:18.570Z,33.08
2023-04-22T15:29:28.715Z,33.28
2023-04-22T15:33:36.699Z,33.01
2023-04-22T15:37:45.111Z,33.58
2023-04-22T15:41:53.064Z,33.83
2023-04-22T15:46:02.230Z,34.17
2023-04-22T15:50:12.463Z,34.33
2023-04-22T15:54:20.393Z,34.10
2023-04-22T15:58:32.386Z,34.13
2023-04-22T16:02:42.884Z,34.56
2023-04-22T16:06:51.682Z,34.67
2023-04-22T16:10:59.546Z,33.90
2023-04-22T16:15:13.015Z,33.65
2023-04-22T16:19:20.114Z,34.39
2023-04-22T16:23:27.931Z,34.17
2023-04-22T16:27:35.763Z,34.37
2023-04-22T16:31:44.067Z,34.57
2023-04-22T16:35:51.948Z,34.98
2023-04-22T16:40:01.712Z,34.91
2023-04-22T16:44:09.823Z,35.04
2023-04-22T16:48:17.445Z,35.43
2023-04-22T16:52:27.012Z,36.11
2023-04-22T16:56:34.831Z,36.51
2023-04-22T17:00:43.182Z,36.39
2023-04-22T17:04:51.162Z,37.06
2023-04-22T17:09:00.178Z,37.25
2023-04-22T17:13:08.260Z,37.56
2023-04-22T17:17:16.080Z,37.70
2023-04-22T17:21:24.446Z,37.97
2023-04-22T17:25:32.381Z,38.17
2023-04-22T17:29:39.779Z,38.65
2023-04-22T17:33:46.993Z,39.00
2023-04-22T17:37:55.011Z,39.08
2023-04-22T17:42:03.596Z,39.55
2023-04-22T17:46:11.508Z,39.57
2023-04-22T17:50:19.780Z,39.83
2023-04-22T17:54:27.552Z,40.47
2023-04-22T17:58:38.561Z,40.67
2023-04-22T18:02:46.491Z,40.84
2023-04-22T18:06:54.994Z,41.15
2023-04-22T18:11:05.015Z,41.57
2023-04-22T18:15:13.789Z,42.10
2023-04-22T18:19:21.816Z,43.00
2023-04-22T18:23:29.852Z,43.38
2023-04-22T18:27:37.439Z,43.34
2023-04-22T18:31:45.424Z,43.56
2023-04-22T18:35:53.060Z,43.83
2023-04-22T18:40:00.842Z,44.18
2023-04-22T18:44:08.909Z,44.43
2023-04-22T18:48:19.335Z,44.79
2023-04-22T18:52:27.107Z,45.21
2023-04-22T18:56:34.497Z,45.02
2023-04-22T19:00:43.238Z,44.97
2023-04-22T19:04:51.067Z,45.04
2023-04-22T19:09:00.112Z,45.41
2023-04-22T19:13:13.399Z,45.80
2023-04-22T19:17:27.383Z,45.55
2023-04-22T19:21:36.216Z,46.15
2023-04-22T19:25:43.973Z,47.01
2023-04-22T19:29:53.549Z,46.84
2023-04-22T19:34:03.085Z,46.90
2023-04-22T19:38:12.867Z,46.99
2023-04-22T19:42:21.208Z,47.24
2023-04-22T19:46:28.786Z,47.11
2023-04-22T19:50:37.197Z,46.80
2023-04-22T19:54:47.859Z,46.59
2023-04-22T19:58:55.901Z,46.81
2023-04-22T20:03:05.182Z,46.72
2023-04-22T20:07:13.370Z,47.27
2023-04-22T20:11:21.799Z,47.11
2023-04-22T20:15:31.555Z,47.18
2023-04-22T20:19:40.019Z,47.28
2023-04-22T20:23:48.099Z,47.78
2023-04-22T20:27:57.070Z,48.35
2023-04-22T20:32:06.503Z,48.60
2023-04-22T20:36:16.621Z,48.87
2023-04-22T20:40:25.082Z,48.61
2023-04-22T20:44:33.171Z,49.23
2023-04-22T20:48:41.480Z,49.51
2023-04-22T20:52:50.187Z,49.57
2023-04-22T20:56:59.186Z,49.82
2023-04-22T21:01:06.804Z,49.91
2023-04-22T21:05:16.103Z,50.36
2023-04-22T21:09:26.056Z,50.49
2023-04-22T21:13:35.119Z,50.10
2023-04-22T21:17:46.511Z,49.82
2023-04-22T21:21:55.728Z,49.77
2023-04-22T21:26:05.951Z,49.95
2023-04-22T21:30:18.414Z,50.04
2023-04-22T21:34:26.383Z,50.00
2023-04-22T21:38:34.404Z,50.53
2023-04-22T21:42:42.203Z,51.16
2023-04-22T21:46:49.564Z,51.67
2023-04-22T21:50:57.642Z,52.11
2023-04-22T21:55:05.215Z,52.27
2023-04-22T21:59:14.014Z,52.64
2023-04-22T22:03:21.870Z,52.62
2023-04-22T22:07:30.757Z,52.63
2023-04-22T22:11:38.397Z,52.52
2023-04-22T22:15:46.865Z,52.38
2023-04-22T22:19:54.515Z,52.50
2023-04-22T22:24:02.267Z,52.34
2023-04-22T22:28:10.364Z,52.13
2023-04-22T22:32:18.678Z,52.16
2023-04-22T22:36:26.192Z,52.62
2023-04-22T22:40:34.252Z,52.71
2023-04-22T22:44:42.534Z,53.01
2023-04-22T22:48:50.543Z,53.30
2023-04-22T22:52:57.817Z,53.66
2023-04-22T22:57:06.202Z,53.87
2023-04-22T23:01:16.772Z,54.27
2023-04-22T23:05:25.340Z,54.53
2023-04-22T23:09:33.895Z,54.78
2023-04-22T23:13:41.856Z,55.36
2023-04-22T23:17:52.811Z,55.58
2023-04-22T23:22:01.605Z,56.00
2023-04-22T23:26:10.564Z,56.35
2023-04-22T23:30:21.035Z,56.49
2023-04-22T23:34:29.217Z,56.90
2023-04-22T23:38:37.281Z,57.11
2023-04-22T23:42:44.952Z,57.64
2023-04-22T23:46:53.264Z,57.58
2023-04-22T23:51:01.057Z,57.80
2023-04-22T23:55:14.124Z,58.23
2023-04-22T23:59:23.090Z,58.30
